createdAt,value
2023-04-18T00:01:55.789Z,20.17
2023-04-18T00:04:23.786Z,22.17
2023-04-18T00:06:51.914Z,18.97
2023-04-18T00:09:19.813Z,19.80
2023-04-18T00:11:48.947Z,21.23
2023-04-18T00:14:16.719Z,18.50
2023-04-18T00:16:44.567Z,16.07
2023-04-18T00:19:12.513Z,17.60
2023-04-18T00:21:44.911Z,20.53
2023-04-18T00:24:13.138Z,17.70
2023-04-18T00:26:41.236Z,26.43
2023-04-18T00:29:10.399Z,17.57
2023-04-18T00:31:38.228Z,19.60
2023-04-18T00:34:06.170Z,21.13
2023-04-18T00:36:33.964Z,17.80
2023-04-18T00:39:01.723Z,22.33
2023-04-18T00:41:31.312Z,20.20
2023-04-18T00:43:59.162Z,17.43
2023-04-18T00:46:28.327Z,17.47
2023-04-18T00:48:56.623Z,20.50
2023-04-18T00:51:24.845Z,21.33
2023-04-18T00:53:52.899Z,22.23
2023-04-18T00:56:21.149Z,19.63
2023-04-18T00:58:48.910Z,17.43
2023-04-18T01:01:18.133Z,20.53
2023-04-18T01:03:47.377Z,24.60
2023-04-18T01:06:15.491Z,18.63
2023-04-18T01:08:44.366Z,17.53
2023-04-18T01:11:12.237Z,19.23
2023-04-18T01:13:40.318Z,19.37
2023-04-18T01:16:08.624Z,19.30
2023-04-18T01:18:37.088Z,15.77
2023-04-18T01:21:06.862Z,19.60
2023-04-18T01:23:34.657Z,18.10
2023-04-18T01:26:03.750Z,19.60
2023-04-18T01:28:31.489Z,20.07
2023-04-18T01:30:59.319Z,17.90
2023-04-18T01:33:27.056Z,18.37
2023-04-18T01:35:54.982Z,16.07
2023-04-18T01:38:22.710Z,19.37
2023-04-18T01:40:50.850Z,17.33
2023-04-18T01:43:19.960Z,17.17
2023-04-18T01:45:48.240Z,17.13
2023-04-18T01:48:16.009Z,17.90
2023-04-18T01:50:43.892Z,18.63
2023-04-18T01:53:11.697Z,18.70
2023-04-18T01:55:39.524Z,20.67
2023-04-18T01:58:07.335Z,16.60
2023-04-18T02:00:36.465Z,20.10
2023-04-18T02:03:04.429Z,18.03
2023-04-18T02:05:32.457Z,17.73
2023-04-18T02:08:00.343Z,17.53
2023-04-18T02:10:28.148Z,18.60
2023-04-18T02:12:56.069Z,17.17
2023-04-18T02:15:24.922Z,20.60
2023-04-18T02:17:54.324Z,15.57
2023-04-18T02:20:22.551Z,17.10
2023-04-18T02:22:50.445Z,17.17
2023-04-18T02:25:18.636Z,16.33
2023-04-18T02:27:46.375Z,16.43
2023-04-18T02:30:14.737Z,17.60
2023-04-18T02:32:42.510Z,16.57
2023-04-18T02:35:12.577Z,16.03
2023-04-18T02:37:40.361Z,16.80
2023-04-18T02:40:09.762Z,17.23
2023-04-18T02:42:37.730Z,16.83
2023-04-18T02:45:06.466Z,18.43
2023-04-18T02:47:47.057Z,17.00
2023-04-18T02:50:20.767Z,18.87
2023-04-18T02:52:48.628Z,18.27
2023-04-18T02:55:16.372Z,16.63
2023-04-18T02:57:44.140Z,15.67
2023-04-18T03:00:13.559Z,15.80
2023-04-18T03:02:41.612Z,19.10
2023-04-18T03:05:10.024Z,14.50
2023-04-18T03:07:39.187Z,19.17
2023-04-18T03:10:07.822Z,18.40
2023-04-18T03:12:35.935Z,16.53
2023-04-18T03:15:03.736Z,14.73
2023-04-18T03:17:31.534Z,15.97
2023-04-18T03:19:59.459Z,18.93
2023-04-18T03:22:27.172Z,14.57
2023-04-18T03:24:56.379Z,15.07
2023-04-18T03:27:24.093Z,19.17
2023-04-18T03:29:51.835Z,15.57
2023-04-18T03:32:19.644Z,15.70
2023-04-18T03:34:47.342Z,17.13
2023-04-18T03:37:15.074Z,16.90
2023-04-18T03:39:42.937Z,16.13
2023-04-18T03:42:12.059Z,14.23
2023-04-18T03:44:39.919Z,17.43
2023-04-18T03:47:07.629Z,13.47
2023-04-18T03:49:35.393Z,15.90
2023-04-18T03:52:03.177Z,18.83
2023-04-18T03:54:33.661Z,14.20
2023-04-18T03:57:02.515Z,15.33
2023-04-18T03:59:32.457Z,17.17
2023-04-18T04:02:00.345Z,15.73
2023-04-18T04:04:28.304Z,14.83
2023-04-18T04:06:56.109Z,17.97
2023-04-18T04:09:23.872Z,13.50
2023-04-18T04:11:51.657Z,14.67
2023-04-18T04:14:19.392Z,15.10
2023-04-18T04:16:48.879Z,14.27
2023-04-18T04:19:16.737Z,16.50
2023-04-18T04:21:44.609Z,16.17
2023-04-18T04:24:13.817Z,16.00
2023-04-18T04:26:42.909Z,15.67
2023-04-18T04:29:11.244Z,18.57
2023-04-18T04:31:39.069Z,14.53
2023-04-18T04:34:08.865Z,14.83
2023-04-18T04:36:36.669Z,16.60
2023-04-18T04:39:05.300Z,14.90
2023-04-18T04:41:33.077Z,18.47
2023-04-18T04:44:01.843Z,22.57
2023-04-18T04:46:30.366Z,20.67
2023-04-18T04:48:58.448Z,16.03
2023-04-18T04:51:28.064Z,18.63
2023-04-18T04:53:55.778Z,17.07
2023-04-18T04:56:23.667Z,16.73
2023-04-18T04:58:51.622Z,19.47
2023-04-18T05:01:19.442Z,17.10
2023-04-18T05:03:47.316Z,16.07
2023-04-18T05:06:20.426Z,17.97
2023-04-18T05:08:50.027Z,18.77
2023-04-18T05:11:18.539Z,14.90
2023-04-18T05:13:46.269Z,18.63
2023-04-18T05:16:14.009Z,17.90
2023-04-18T05:18:42.042Z,16.90
2023-04-18T05:21:09.876Z,18.27
2023-04-18T05:23:41.113Z,14.10
2023-04-18T05:26:10.427Z,19.77
2023-04-18T05:28:38.270Z,17.17
2023-04-18T05:31:06.277Z,19.33
2023-04-18T05:33:40.796Z,18.33
2023-04-18T05:36:08.881Z,21.13
2023-04-18T05:38:36.746Z,19.50
2023-04-18T05:41:04.598Z,17.57
2023-04-18T05:43:33.783Z,19.03
2023-04-18T05:46:01.649Z,15.40
2023-04-18T05:48:29.634Z,18.33
2023-04-18T05:50:57.797Z,16.07
2023-04-18T05:53:25.803Z,16.30
2023-04-18T05:55:54.280Z,15.33
2023-04-18T05:58:22.168Z,17.53
2023-04-18T06:00:51.508Z,15.30
2023-04-18T06:03:19.780Z,18.10
2023-04-18T06:05:48.179Z,18.17
2023-04-18T06:08:16.193Z,17.50
2023-04-18T06:10:43.904Z,15.47
2023-04-18T06:13:11.698Z,17.53
2023-04-18T06:15:42.772Z,22.60
2023-04-18T06:18:11.915Z,15.50
2023-04-18T06:20:39.730Z,16.93
2023-04-18T06:23:08.289Z,14.80
2023-04-18T06:25:36.069Z,15.83
2023-04-18T06:28:03.837Z,17.17
2023-04-18T06:30:31.885Z,18.77
2023-04-18T06:32:59.814Z,20.63
2023-04-18T06:35:30.454Z,19.23
2023-04-18T06:37:58.266Z,18.77
2023-04-18T06:40:26.058Z,14.57
2023-04-18T06:42:53.869Z,16.90
2023-04-18T06:45:21.713Z,16.67
2023-04-18T06:47:51.346Z,15.03
2023-04-18T06:50:19.464Z,15.73
2023-04-18T06:52:48.769Z,14.77
2023-04-18T06:55:16.515Z,16.20
2023-04-18T06:57:44.883Z,14.53
2023-04-18T07:00:13.499Z,17.63
2023-04-18T07:02:42.185Z,14.37
2023-04-18T07:05:10.387Z,16.53
2023-04-18T07:07:38.210Z,17.80
2023-04-18T07:10:09.946Z,18.97
2023-04-18T07:12:37.723Z,13.37
2023-04-18T07:15:06.370Z,24.73
2023-04-18T07:17:34.284Z,15.57
2023-04-18T07:20:02.252Z,14.33
2023-04-18T07:22:30.247Z,14.90
2023-04-18T07:24:58.014Z,13.57
2023-04-18T07:27:27.277Z,13.47
2023-04-18T07:29:55.157Z,18.97
2023-04-18T07:32:23.277Z,16.70
2023-04-18T07:34:51.960Z,15.87
2023-04-18T07:37:21.332Z,16.17
2023-04-18T07:39:49.502Z,15.43
2023-04-18T07:42:17.282Z,17.70
2023-04-18T07:44:46.898Z,13.80
2023-04-18T07:47:14.644Z,16.17
2023-04-18T07:49:42.640Z,16.87
2023-04-18T07:52:10.772Z,20.00
2023-04-18T07:54:38.570Z,17.40
2023-04-18T07:57:06.393Z,15.90
2023-04-18T07:59:34.425Z,19.63
2023-04-18T08:02:03.699Z,13.73
2023-04-18T08:04:31.799Z,12.20
2023-04-18T08:07:00.146Z,14.27
2023-04-18T08:09:28.207Z,13.50
2023-04-18T08:11:56.879Z,17.67
2023-04-18T08:14:24.837Z,14.23
2023-04-18T08:16:52.819Z,15.03
2023-04-18T08:19:21.971Z,21.33
2023-04-18T08:21:52.279Z,13.27
2023-04-18T08:24:20.058Z,17.53
2023-04-18T08:26:47.855Z,17.67
2023-04-18T08:29:15.993Z,15.30
2023-04-18T08:31:44.080Z,19.47
2023-04-18T08:34:11.929Z,13.93
2023-04-18T08:36:41.144Z,13.47
2023-04-18T08:39:08.912Z,14.13
2023-04-18T08:41:38.343Z,13.63
2023-04-18T08:44:07.790Z,14.83
2023-04-18T08:46:37.240Z,16.90
2023-04-18T08:49:09.612Z,18.37
2023-04-18T08:51:43.189Z,14.07
2023-04-18T08:54:12.302Z,13.87
2023-04-18T08:56:41.002Z,13.87
2023-04-18T08:59:09.511Z,13.23
2023-04-18T09:01:57.587Z,12.97
2023-04-18T09:04:37.092Z,12.53
2023-04-18T09:07:08.209Z,17.47
2023-04-18T09:09:43.588Z,13.37
2023-04-18T09:12:14.318Z,18.97
2023-04-18T09:14:45.759Z,13.93
2023-04-18T09:17:15.168Z,12.47
2023-04-18T09:19:54.531Z,12.57
2023-04-18T09:22:23.784Z,14.67
2023-04-18T09:24:57.340Z,14.30
2023-04-18T09:27:25.513Z,12.80
2023-04-18T09:29:56.529Z,15.53
2023-04-18T09:32:27.361Z,16.00
2023-04-18T09:34:58.308Z,13.87
2023-04-18T09:37:27.752Z,10.90
2023-04-18T09:39:55.959Z,13.60
2023-04-18T09:42:24.380Z,15.23
2023-04-18T09:45:03.674Z,12.70
2023-04-18T09:47:32.248Z,13.83
2023-04-18T09:50:00.234Z,11.90
2023-04-18T09:52:34.150Z,12.87
2023-04-18T09:55:04.460Z,10.33
2023-04-18T09:57:33.618Z,15.73
2023-04-18T10:00:14.145Z,13.23
2023-04-18T10:02:50.436Z,14.27
2023-04-18T10:05:20.961Z,13.47
2023-04-18T10:07:51.668Z,16.70
2023-04-18T10:10:19.654Z,12.30
2023-04-18T10:12:50.549Z,13.90
2023-04-18T10:15:22.028Z,14.43
2023-04-18T10:20:26.664Z,11.83
2023-04-18T10:22:56.950Z,15.40
2023-04-18T10:25:49.266Z,12.93
2023-04-18T10:28:17.090Z,13.20
2023-04-18T10:31:04.247Z,13.30
2023-04-18T10:33:34.726Z,12.67
2023-04-18T10:36:06.122Z,13.20
2023-04-18T10:38:36.078Z,12.23
2023-04-18T10:41:18.115Z,13.97
2023-04-18T10:44:19.989Z,14.73
2023-04-18T10:47:22.031Z,13.90
2023-04-18T10:50:06.132Z,14.37
2023-04-18T10:52:34.469Z,12.00
2023-04-18T10:55:11.945Z,12.37
2023-04-18T10:57:41.279Z,14.53
2023-04-18T11:00:12.613Z,14.83
2023-04-18T11:02:41.957Z,15.50
2023-04-18T11:05:10.842Z,13.23
2023-04-18T11:07:40.556Z,12.17
2023-04-18T11:10:10.787Z,11.60
2023-04-18T11:12:41.227Z,14.33
2023-04-18T11:15:12.378Z,14.77
2023-04-18T11:17:41.213Z,12.53
2023-04-18T11:20:11.285Z,15.30
2023-04-18T11:22:47.094Z,13.80
2023-04-18T11:25:17.362Z,13.77
2023-04-18T11:27:47.451Z,12.47
2023-04-18T11:30:16.780Z,12.30
2023-04-18T11:32:44.808Z,14.68
2023-04-18T11:35:14.762Z,14.03
2023-04-18T11:37:45.287Z,12.03
2023-04-18T11:40:14.304Z,11.50
2023-04-18T11:42:43.713Z,16.97
2023-04-18T11:45:13.323Z,15.47
2023-04-18T11:47:42.899Z,15.00
2023-04-18T11:50:12.427Z,14.63
2023-04-18T11:52:41.366Z,15.57
2023-04-18T11:55:14.489Z,13.67
2023-04-18T11:57:44.003Z,14.10
2023-04-18T12:00:13.316Z,15.33
2023-04-18T12:02:43.335Z,14.37
2023-04-18T12:05:12.049Z,13.57
2023-04-18T12:07:41.171Z,13.77
2023-04-18T12:10:11.015Z,14.83
2023-04-18T12:12:38.730Z,18.80
2023-04-18T12:15:10.384Z,16.37
2023-04-18T12:17:39.011Z,16.10
2023-04-18T12:20:13.394Z,12.27
2023-04-18T12:22:47.349Z,16.57
2023-04-18T12:25:27.107Z,15.10
2023-04-18T12:27:58.924Z,16.13
2023-04-18T12:30:30.909Z,15.20
2023-04-18T12:33:01.932Z,15.30
2023-04-18T12:35:32.634Z,15.53
2023-04-18T12:38:01.662Z,13.10
2023-04-18T12:40:30.573Z,13.67
2023-04-18T12:42:58.423Z,16.27
2023-04-18T12:45:26.275Z,13.57
2023-04-18T12:47:55.585Z,15.30
2023-04-18T12:50:24.687Z,13.33
2023-04-18T12:52:53.580Z,18.77
2023-04-18T12:55:22.611Z,15.50
2023-04-18T12:57:52.231Z,14.93
2023-04-18T13:00:20.157Z,12.67
2023-04-18T13:02:48.058Z,14.83
2023-04-18T13:05:19.318Z,13.80
2023-04-18T13:07:49.502Z,12.90
2023-04-18T13:10:19.381Z,14.73
2023-04-18T13:12:47.695Z,14.30
2023-04-18T13:15:15.823Z,14.33
2023-04-18T13:17:47.313Z,13.03
2023-04-18T13:20:17.846Z,14.23
2023-04-18T13:22:49.392Z,12.47
2023-04-18T13:25:20.032Z,14.20
2023-04-18T13:27:50.121Z,12.63
2023-04-18T13:30:17.933Z,17.70
2023-04-18T13:32:46.298Z,12.50
2023-04-18T13:35:16.628Z,12.70
2023-04-18T13:37:44.342Z,15.50
2023-04-18T13:40:16.729Z,11.90
2023-04-18T13:42:47.685Z,13.73
2023-04-18T13:45:17.249Z,13.93
2023-04-18T13:47:45.277Z,12.63
2023-04-18T13:50:13.116Z,16.33
2023-04-18T13:52:40.955Z,20.37
2023-04-18T13:55:10.597Z,17.93
2023-04-18T13:57:41.038Z,14.90
2023-04-18T14:00:13.635Z,14.77
2023-04-18T14:02:41.805Z,16.63
2023-04-18T14:05:10.639Z,14.20
2023-04-18T14:07:38.723Z,12.63
2023-04-18T14:10:07.780Z,13.23
2023-04-18T14:12:35.549Z,14.03
2023-04-18T14:15:05.226Z,12.87
2023-04-18T14:17:32.963Z,10.77
2023-04-18T14:20:04.931Z,13.17
2023-04-18T14:22:32.707Z,13.50
2023-04-18T14:25:00.572Z,10.13
2023-04-18T14:27:28.667Z,13.97
2023-04-18T14:29:56.626Z,15.70
2023-04-18T14:32:26.153Z,13.40
2023-04-18T14:34:56.748Z,13.10
2023-04-18T14:37:28.952Z,12.00
2023-04-18T14:39:56.991Z,10.23
2023-04-18T14:42:24.800Z,18.53
2023-04-18T14:44:52.543Z,11.70
2023-04-18T14:47:20.766Z,11.43
2023-04-18T14:49:50.116Z,9.70
2023-04-18T14:52:17.901Z,13.97
2023-04-18T14:54:45.752Z,13.53
2023-04-18T14:57:13.641Z,12.27
2023-04-18T14:59:41.574Z,11.07
2023-04-18T15:02:09.577Z,10.67
2023-04-18T15:04:37.759Z,10.50
2023-04-18T15:07:08.140Z,13.07
2023-04-18T15:09:37.631Z,12.50
2023-04-18T15:12:06.365Z,13.20
2023-04-18T15:14:34.893Z,11.67
2023-04-18T15:17:03.079Z,15.37
2023-04-18T15:19:32.356Z,15.67
2023-04-18T15:22:00.144Z,12.07
2023-04-18T15:24:29.536Z,8.37
2023-04-18T15:26:58.589Z,11.47
2023-04-18T15:29:26.445Z,9.03
2023-04-18T15:31:54.622Z,9.17
2023-04-18T15:34:22.425Z,9.13
2023-04-18T15:36:50.516Z,14.67
2023-04-18T15:39:21.780Z,8.90
2023-04-18T15:41:53.445Z,9.87
2023-04-18T15:44:21.427Z,15.33
2023-04-18T15:46:49.632Z,6.53
2023-04-18T15:49:17.456Z,8.03
2023-04-18T15:51:45.319Z,8.53
2023-04-18T15:54:13.345Z,6.53
2023-04-18T15:56:43.837Z,5.53
2023-04-18T15:59:13.634Z,7.63
2023-04-18T16:01:42.317Z,8.37
2023-04-18T16:04:11.095Z,8.30
2023-04-18T16:06:39.145Z,9.60
2023-04-18T16:09:07.044Z,5.63
2023-04-18T16:11:34.820Z,6.67
2023-04-18T16:14:02.726Z,8.07
2023-04-18T16:16:32.027Z,8.77
2023-04-18T16:19:00.033Z,7.17
2023-04-18T16:21:28.426Z,5.03
2023-04-18T16:23:56.249Z,5.63
2023-04-18T16:26:24.949Z,7.97
2023-04-18T16:28:52.947Z,14.30
2023-04-18T16:31:21.091Z,7.93
2023-04-18T16:33:52.385Z,5.27
2023-04-18T16:36:20.440Z,5.30
2023-04-18T16:38:48.184Z,6.00
2023-04-18T16:41:16.143Z,4.60
2023-04-18T16:43:43.959Z,8.43
2023-04-18T16:46:13.683Z,10.00
2023-04-18T16:48:45.294Z,5.73
2023-04-18T16:51:14.505Z,11.17
2023-04-18T16:53:44.580Z,4.63
2023-04-18T16:56:12.327Z,4.13
2023-04-18T16:58:40.103Z,6.03
2023-04-18T17:01:08.298Z,4.90
2023-04-18T17:03:36.605Z,4.30
2023-04-18T17:06:05.715Z,4.33
2023-04-18T17:08:35.803Z,4.50
2023-04-18T17:11:03.924Z,6.97
2023-04-18T17:13:32.378Z,6.90
2023-04-18T17:16:00.214Z,4.93
2023-04-18T17:18:29.288Z,6.03
2023-04-18T17:20:57.324Z,4.63
2023-04-18T17:23:25.212Z,7.00
2023-04-18T17:25:54.457Z,4.20
2023-04-18T17:28:25.179Z,5.93
2023-04-18T17:30:52.894Z,3.93
2023-04-18T17:33:23.247Z,5.70
2023-04-18T17:35:51.401Z,5.33
2023-04-18T17:38:19.338Z,7.00
2023-04-18T17:40:47.121Z,7.97
2023-04-18T17:43:16.320Z,5.43
2023-04-18T17:45:44.223Z,7.07
2023-04-18T17:48:12.388Z,5.43
2023-04-18T17:50:42.054Z,5.70
2023-04-18T17:53:09.813Z,4.50
2023-04-18T17:55:37.646Z,6.47
2023-04-18T17:58:05.933Z,4.50
2023-04-18T18:00:35.092Z,3.97
2023-04-18T18:03:03.564Z,4.53
2023-04-18T18:05:31.504Z,4.97
2023-04-18T18:08:01.073Z,4.80
2023-04-18T18:10:29.407Z,7.67
2023-04-18T18:12:57.237Z,7.53
2023-04-18T18:15:25.282Z,5.80
2023-04-18T18:17:55.035Z,6.43
2023-04-18T18:20:23.037Z,4.90
2023-04-18T18:22:51.403Z,5.57
2023-04-18T18:25:20.719Z,5.87
2023-04-18T18:27:49.317Z,4.93
2023-04-18T18:30:18.229Z,5.57
2023-04-18T18:32:46.161Z,8.03
2023-04-18T18:35:15.360Z,6.17
2023-04-18T18:37:43.104Z,5.70
2023-04-18T18:40:11.826Z,8.77
2023-04-18T18:42:39.741Z,6.87
2023-04-18T18:45:09.005Z,6.43
2023-04-18T18:47:39.677Z,5.97
2023-04-18T18:50:08.561Z,7.07
2023-04-18T18:52:37.925Z,4.57
2023-04-18T18:55:06.460Z,6.80
2023-04-18T18:57:35.028Z,7.00
2023-04-18T19:00:03.045Z,9.27
2023-04-18T19:02:30.961Z,6.60
2023-04-18T19:04:59.176Z,6.83
2023-04-18T19:07:29.898Z,7.37
2023-04-18T19:10:25.044Z,7.63
2023-04-18T19:12:52.854Z,5.93
2023-04-18T19:15:20.679Z,6.23
2023-04-18T19:17:51.290Z,5.03
2023-04-18T19:20:19.177Z,5.30
2023-04-18T19:22:46.902Z,7.30
2023-04-18T19:25:16.164Z,5.87
2023-04-18T19:27:44.018Z,5.10
2023-04-18T19:30:12.524Z,6.50
2023-04-18T19:32:40.338Z,7.80
2023-04-18T19:35:09.857Z,6.53
2023-04-18T19:37:37.863Z,7.83
2023-04-18T19:40:07.336Z,5.30
2023-04-18T19:42:36.639Z,6.70
2023-04-18T19:45:07.985Z,8.23
2023-04-18T19:47:38.202Z,10.23
2023-04-18T19:50:07.380Z,9.27
2023-04-18T19:52:35.164Z,6.53
2023-04-18T19:55:03.037Z,7.47
2023-04-18T19:57:30.909Z,5.97
2023-04-18T20:00:00.239Z,8.23
2023-04-18T20:02:28.262Z,5.50
2023-04-18T20:04:56.625Z,9.80
2023-04-18T20:07:26.282Z,10.90
2023-04-18T20:09:54.403Z,8.90
2023-04-18T20:12:22.278Z,7.57
2023-04-18T20:14:50.068Z,13.97
2023-04-18T20:17:19.401Z,10.83
2023-04-18T20:19:49.867Z,7.07
2023-04-18T20:22:18.238Z,9.07
2023-04-18T20:24:46.384Z,8.93
2023-04-18T20:27:14.081Z,10.40
2023-04-18T20:29:42.115Z,6.30
2023-04-18T20:32:12.545Z,6.50
2023-04-18T20:34:41.651Z,7.10
2023-04-18T20:37:09.996Z,9.30
2023-04-18T20:39:38.088Z,7.70
2023-04-18T20:42:06.112Z,6.30
2023-04-18T20:44:35.044Z,8.07
2023-04-18T20:47:06.106Z,11.07
2023-04-18T20:49:34.148Z,12.73
2023-04-18T20:52:03.310Z,6.93
2023-04-18T20:54:31.088Z,8.50
2023-04-18T20:56:58.805Z,9.77
2023-04-18T20:59:27.973Z,10.13
2023-04-18T21:01:55.915Z,9.90
2023-04-18T21:04:24.190Z,7.97
2023-04-18T21:06:52.061Z,9.27
2023-04-18T21:09:21.582Z,8.77
2023-04-18T21:11:49.519Z,9.50
2023-04-18T21:14:17.548Z,8.13
2023-04-18T21:16:45.406Z,9.13
2023-04-18T21:19:13.192Z,9.10
2023-04-18T21:21:40.923Z,10.50
2023-04-18T21:24:08.791Z,8.33
2023-04-18T21:26:37.999Z,8.67
2023-04-18T21:29:06.062Z,8.93
2023-04-18T21:31:35.889Z,8.33
2023-04-18T21:34:05.559Z,8.47
2023-04-18T21:36:33.754Z,9.50
2023-04-18T21:39:02.193Z,10.23
2023-04-18T21:41:30.069Z,9.53
2023-04-18T21:43:59.188Z,11.17
2023-04-18T21:46:27.050Z,11.97
2023-04-18T21:48:54.778Z,10.70
2023-04-18T21:51:25.466Z,8.33
2023-04-18T21:53:53.290Z,8.50
2023-04-18T21:56:21.150Z,8.77
2023-04-18T21:58:49.136Z,14.10
2023-04-18T22:01:18.386Z,12.40
2023-04-18T22:03:46.412Z,10.07
2023-04-18T22:06:14.321Z,12.00
2023-04-18T22:08:43.636Z,15.50
2023-04-18T22:11:13.585Z,13.17
2023-04-18T22:13:44.840Z,12.70
2023-04-18T22:16:15.537Z,10.93
2023-04-18T22:18:44.796Z,11.90
2023-04-18T22:21:12.556Z,10.70
2023-04-18T22:23:40.352Z,9.97
2023-04-18T22:26:08.074Z,8.87
2023-04-18T22:28:35.833Z,10.57
2023-04-18T22:31:03.577Z,9.90
2023-04-18T22:33:31.361Z,8.83
2023-04-18T22:36:00.521Z,9.73
2023-04-18T22:38:28.231Z,8.93
2023-04-18T22:40:55.959Z,13.00
2023-04-18T22:43:24.815Z,6.60
2023-04-18T22:45:52.591Z,8.93
2023-04-18T22:48:20.448Z,6.60
2023-04-18T22:50:49.654Z,9.27
2023-04-18T22:53:18.832Z,6.20
2023-04-18T22:55:46.911Z,8.93
2023-04-18T22:58:14.737Z,10.30
2023-04-18T23:00:42.486Z,7.33
2023-04-18T23:03:10.410Z,6.70
2023-04-18T23:05:38.345Z,7.17
2023-04-18T23:08:07.015Z,6.10
2023-04-18T23:10:36.684Z,8.47
2023-04-18T23:13:04.516Z,9.00
2023-04-18T23:15:32.418Z,6.80
2023-04-18T23:18:00.241Z,7.13
2023-04-18T23:20:28.025Z,9.27
2023-04-18T23:22:56.046Z,6.03
2023-04-18T23:25:23.990Z,5.10
2023-04-18T23:27:53.060Z,6.47
2023-04-18T23:30:20.849Z,7.33
2023-04-18T23:32:48.556Z,9.97
2023-04-18T23:35:16.400Z,5.37
2023-04-18T23:37:44.180Z,6.40
2023-04-18T23:40:12.033Z,8.10
2023-04-18T23:42:39.729Z,7.20
2023-04-18T23:45:09.453Z,5.53
2023-04-18T23:47:37.218Z,10.67
2023-04-18T23:50:05.752Z,9.00
2023-04-18T23:52:33.474Z,5.60
2023-04-18T23:55:01.547Z,4.70
2023-04-18T23:57:29.279Z,4.87
2023-04-18T23:59:57.027Z,6.17
